sensor_id;sensor_type;location;lat;lon;timestamp;pressure;altitude;pressure_sealevel;temperature
18219;BMP180;9234;49.344;11.120;2023-01-16T00:01:30;96410.00;;;1.50
18219;BMP180;9234;49.344;11.120;2023-01-16T00:03:58;96408.00;;;1.50
18219;BMP180;9234;49.344;11.120;2023-01-16T00:06:26;96390.00;;;1.50
18219;BMP180;9234;49.344;11.120;2023-01-16T00:08:54;96395.00;;;1.40
18219;BMP180;9234;49.344;11.120;2023-01-16T00:11:23;96395.00;;;1.40
18219;BMP180;9234;49.344;11.120;2023-01-16T00:13:51;96389.00;;;1.40
18219;BMP180;9234;49.344;11.120;2023-01-16T00:16:19;96382.00;;;1.30
18219;BMP180;9234;49.344;11.120;2023-01-16T00:18:49;96379.00;;;1.30
18219;BMP180;9234;49.344;11.120;2023-01-16T00:21:17;96376.00;;;1.30
18219;BMP180;9234;49.344;11.120;2023-01-16T00:23:47;96376.00;;;1.30
18219;BMP180;9234;49.344;11.120;2023-01-16T00:26:15;96369.00;;;1.30
18219;BMP180;9234;49.344;11.120;2023-01-16T00:28:43;96368.00;;;1.30
18219;BMP180;9234;49.344;11.120;2023-01-16T00:31:11;96357.00;;;1.30
18219;BMP180;9234;49.344;11.120;2023-01-16T00:33:39;96359.00;;;1.30
18219;BMP180;9234;49.344;11.120;2023-01-16T00:36:12;96352.00;;;1.20
18219;BMP180;9234;49.344;11.120;2023-01-16T00:38:40;96340.00;;;1.20
18219;BMP180;9234;49.344;11.120;2023-01-16T00:41:08;96327.00;;;1.10
18219;BMP180;9234;49.344;11.120;2023-01-16T00:43:36;96324.00;;;1.10
18219;BMP180;9234;49.344;11.120;2023-01-16T00:46:05;96329.00;;;1.10
18219;BMP180;9234;49.344;11.120;2023-01-16T00:48:33;96324.00;;;1.00
18219;BMP180;9234;49.344;11.120;2023-01-16T00:51:01;96319.00;;;1.00
18219;BMP180;9234;49.344;11.120;2023-01-16T00:53:30;96303.00;;;1.00
18219;BMP180;9234;49.344;11.120;2023-01-16T00:55:59;96303.00;;;0.90
18219;BMP180;9234;49.344;11.120;2023-01-16T00:58:27;96293.00;;;0.90
18219;BMP180;9234;49.344;11.120;2023-01-16T01:00:55;96315.00;;;0.80
18219;BMP180;9234;49.344;11.120;2023-01-16T01:03:23;96309.00;;;0.80
18219;BMP180;9234;49.344;11.120;2023-01-16T01:05:51;96301.00;;;0.80
18219;BMP180;9234;49.344;11.120;2023-01-16T01:08:20;96310.00;;;0.80
18219;BMP180;9234;49.344;11.120;2023-01-16T01:10:49;96297.00;;;0.70
18219;BMP180;9234;49.344;11.120;2023-01-16T01:13:17;96310.00;;;0.70
18219;BMP180;9234;49.344;11.120;2023-01-16T01:15:46;96305.00;;;0.70
18219;BMP180;9234;49.344;11.120;2023-01-16T01:18:14;96295.00;;;0.70
18219;BMP180;9234;49.344;11.120;2023-01-16T01:20:42;96296.00;;;0.60
18219;BMP180;9234;49.344;11.120;2023-01-16T01:23:10;96287.00;;;0.60
18219;BMP180;9234;49.344;11.120;2023-01-16T01:25:38;96294.00;;;0.60
18219;BMP180;9234;49.344;11.120;2023-01-16T01:28:08;96291.00;;;0.60
18219;BMP180;9234;49.344;11.120;2023-01-16T01:30:37;96293.00;;;0.50
18219;BMP180;9234;49.344;11.120;2023-01-16T01:33:06;96278.00;;;0.50
18219;BMP180;9234;49.344;11.120;2023-01-16T01:35:35;96270.00;;;0.50
18219;BMP180;9234;49.344;11.120;2023-01-16T01:38:04;96269.00;;;0.50
18219;BMP180;9234;49.344;11.120;2023-01-16T01:40:33;96249.00;;;0.50
18219;BMP180;9234;49.344;11.120;2023-01-16T01:43:01;96254.00;;;0.50
18219;BMP180;9234;49.344;11.120;2023-01-16T01:45:31;96262.00;;;0.50
18219;BMP180;9234;49.344;11.120;2023-01-16T01:48:18;96246.00;;;0.60
18219;BMP180;9234;49.344;11.120;2023-01-16T01:50:52;96241.00;;;0.60
18219;BMP180;9234;49.344;11.120;2023-01-16T01:53:27;96248.00;;;0.70
18219;BMP180;9234;49.344;11.120;2023-01-16T01:55:59;96238.00;;;0.70
18219;BMP180;9234;49.344;11.120;2023-01-16T01:58:32;96246.00;;;0.80
18219;BMP180;9234;49.344;11.120;2023-01-16T02:01:03;96238.00;;;0.80
18219;BMP180;9234;49.344;11.120;2023-01-16T02:03:37;96228.00;;;0.80
18219;BMP180;9234;49.344;11.120;2023-01-16T02:06:14;96236.00;;;0.80
18219;BMP180;9234;49.344;11.120;2023-01-16T02:08:44;96218.00;;;0.80
18219;BMP180;9234;49.344;11.120;2023-01-16T02:11:17;96215.00;;;0.90
18219;BMP180;9234;49.344;11.120;2023-01-16T02:13:55;96215.00;;;0.90
18219;BMP180;9234;49.344;11.120;2023-01-16T02:16:26;96213.00;;;0.90
18219;BMP180;9234;49.344;11.120;2023-01-16T02:19:40;96211.00;;;0.80
18219;BMP180;9234;49.344;11.120;2023-01-16T02:22:45;96203.00;;;0.80
18219;BMP180;9234;49.344;11.120;2023-01-16T02:25:58;96183.00;;;0.70
18219;BMP180;9234;49.344;11.120;2023-01-16T02:28:58;96171.00;;;0.70
18219;BMP180;9234;49.344;11.120;2023-01-16T02:31:44;96164.00;;;0.70
18219;BMP180;9234;49.344;11.120;2023-01-16T02:34:34;96161.00;;;0.70
18219;BMP180;9234;49.344;11.120;2023-01-16T02:37:23;96162.00;;;0.70
18219;BMP180;9234;49.344;11.120;2023-01-16T02:40:06;96148.00;;;0.70
18219;BMP180;9234;49.344;11.120;2023-01-16T02:42:43;96146.00;;;0.70
18219;BMP180;9234;49.344;11.120;2023-01-16T02:45:21;96139.00;;;0.80
18219;BMP180;9234;49.344;11.120;2023-01-16T02:47:59;96140.00;;;0.80
18219;BMP180;9234;49.344;11.120;2023-01-16T02:50:37;96134.00;;;0.80
18219;BMP180;9234;49.344;11.120;2023-01-16T02:53:16;96126.00;;;0.80
18219;BMP180;9234;49.344;11.120;2023-01-16T02:55:49;96126.00;;;0.90
18219;BMP180;9234;49.344;11.120;2023-01-16T02:58:21;96110.00;;;1.00
18219;BMP180;9234;49.344;11.120;2023-01-16T03:00:52;96115.00;;;1.00
18219;BMP180;9234;49.344;11.120;2023-01-16T03:03:40;96106.00;;;1.10
18219;BMP180;9234;49.344;11.120;2023-01-16T03:06:38;96113.00;;;1.30
18219;BMP180;9234;49.344;11.120;2023-01-16T03:09:30;96108.00;;;1.40
18219;BMP180;9234;49.344;11.120;2023-01-16T03:12:20;96088.00;;;1.40
18219;BMP180;9234;49.344;11.120;2023-01-16T03:14:58;96087.00;;;1.50
18219;BMP180;9234;49.344;11.120;2023-01-16T03:17:41;96080.00;;;1.50
18219;BMP180;9234;49.344;11.120;2023-01-16T03:20:30;96078.00;;;1.50
18219;BMP180;9234;49.344;11.120;2023-01-16T03:23:09;96083.00;;;1.50
18219;BMP180;9234;49.344;11.120;2023-01-16T03:25:48;96065.00;;;1.50
18219;BMP180;9234;49.344;11.120;2023-01-16T03:28:28;96054.00;;;1.60
18219;BMP180;9234;49.344;11.120;2023-01-16T03:31:11;96051.00;;;1.60
18219;BMP180;9234;49.344;11.120;2023-01-16T03:33:49;96031.00;;;1.60
18219;BMP180;9234;49.344;11.120;2023-01-16T03:36:33;96017.00;;;1.60
18219;BMP180;9234;49.344;11.120;2023-01-16T03:39:07;96019.00;;;1.60
18219;BMP180;9234;49.344;11.120;2023-01-16T03:41:40;96006.00;;;1.60
18219;BMP180;9234;49.344;11.120;2023-01-16T03:44:17;96007.00;;;1.50
18219;BMP180;9234;49.344;11.120;2023-01-16T03:46:52;95997.00;;;1.50
18219;BMP180;9234;49.344;11.120;2023-01-16T03:49:25;95992.00;;;1.50
18219;BMP180;9234;49.344;11.120;2023-01-16T03:52:00;95982.00;;;1.40
18219;BMP180;9234;49.344;11.120;2023-01-16T03:54:36;95974.00;;;1.40
18219;BMP180;9234;49.344;11.120;2023-01-16T03:57:14;95959.00;;;1.30
18219;BMP180;9234;49.344;11.120;2023-01-16T03:59:45;95960.00;;;1.30
18219;BMP180;9234;49.344;11.120;2023-01-16T04:02:18;95971.00;;;1.30
18219;BMP180;9234;49.344;11.120;2023-01-16T04:04:54;95961.00;;;1.30
18219;BMP180;9234;49.344;11.120;2023-01-16T04:07:32;95944.00;;;1.20
18219;BMP180;9234;49.344;11.120;2023-01-16T04:10:06;95951.00;;;1.20
18219;BMP180;9234;49.344;11.120;2023-01-16T04:12:37;95939.00;;;1.20
18219;BMP180;9234;49.344;11.120;2023-01-16T04:15:10;95926.00;;;1.10
18219;BMP180;9234;49.344;11.120;2023-01-16T04:17:39;95924.00;;;1.10
18219;BMP180;9234;49.344;11.120;2023-01-16T04:20:09;95919.00;;;1.10
18219;BMP180;9234;49.344;11.120;2023-01-16T04:22:39;95900.00;;;1.10
18219;BMP180;9234;49.344;11.120;2023-01-16T04:25:09;95899.00;;;1.10
18219;BMP180;9234;49.344;11.120;2023-01-16T04:27:37;95891.00;;;1.20
18219;BMP180;9234;49.344;11.120;2023-01-16T04:30:07;95887.00;;;1.10
18219;BMP180;9234;49.344;11.120;2023-01-16T04:32:35;95883.00;;;1.20
18219;BMP180;9234;49.344;11.120;2023-01-16T04:35:05;95899.00;;;1.20
18219;BMP180;9234;49.344;11.120;2023-01-16T04:37:34;95882.00;;;1.20
18219;BMP180;9234;49.344;11.120;2023-01-16T04:40:04;95877.00;;;1.20
18219;BMP180;9234;49.344;11.120;2023-01-16T04:42:35;95867.00;;;1.20
18219;BMP180;9234;49.344;11.120;2023-01-16T04:45:05;95871.00;;;1.20
18219;BMP180;9234;49.344;11.120;2023-01-16T04:47:33;95867.00;;;1.10
18219;BMP180;9234;49.344;11.120;2023-01-16T04:50:01;95861.00;;;1.10
18219;BMP180;9234;49.344;11.120;2023-01-16T04:52:30;95857.00;;;1.10
18219;BMP180;9234;49.344;11.120;2023-01-16T04:54:58;95854.00;;;1.10
18219;BMP180;9234;49.344;11.120;2023-01-16T04:57:27;95838.00;;;1.10
18219;BMP180;9234;49.344;11.120;2023-01-16T04:59:55;95838.00;;;1.10
18219;BMP180;9234;49.344;11.120;2023-01-16T05:02:26;95825.00;;;1.10
18219;BMP180;9234;49.344;11.120;2023-01-16T05:04:54;95824.00;;;1.00
18219;BMP180;9234;49.344;11.120;2023-01-16T05:07:23;95817.00;;;1.00
18219;BMP180;9234;49.344;11.120;2023-01-16T05:09:53;95825.00;;;1.00
18219;BMP180;9234;49.344;11.120;2023-01-16T05:12:21;95820.00;;;0.90
18219;BMP180;9234;49.344;11.120;2023-01-16T05:14:51;95816.00;;;0.90
18219;BMP180;9234;49.344;11.120;2023-01-16T05:17:19;95800.00;;;0.90
18219;BMP180;9234;49.344;11.120;2023-01-16T05:19:51;95798.00;;;0.90
18219;BMP180;9234;49.344;11.120;2023-01-16T05:22:19;95807.00;;;0.90
18219;BMP180;9234;49.344;11.120;2023-01-16T05:24:47;95793.00;;;0.90
18219;BMP180;9234;49.344;11.120;2023-01-16T05:27:15;95784.00;;;0.90
18219;BMP180;9234;49.344;11.120;2023-01-16T05:29:44;95778.00;;;0.80
18219;BMP180;9234;49.344;11.120;2023-01-16T05:32:13;95768.00;;;0.80
18219;BMP180;9234;49.344;11.120;2023-01-16T05:34:41;95777.00;;;0.90
18219;BMP180;9234;49.344;11.120;2023-01-16T05:37:12;95760.00;;;0.80
18219;BMP180;9234;49.344;11.120;2023-01-16T05:39:40;95758.00;;;0.90
18219;BMP180;9234;49.344;11.120;2023-01-16T05:42:08;95745.00;;;0.90
18219;BMP180;9234;49.344;11.120;2023-01-16T05:44:48;95739.00;;;0.90
18219;BMP180;9234;49.344;11.120;2023-01-16T05:47:18;95733.00;;;0.90
18219;BMP180;9234;49.344;11.120;2023-01-16T05:49:47;95724.00;;;0.90
18219;BMP180;9234;49.344;11.120;2023-01-16T05:52:15;95719.00;;;0.90
18219;BMP180;9234;49.344;11.120;2023-01-16T05:54:43;95717.00;;;0.90
18219;BMP180;9234;49.344;11.120;2023-01-16T05:57:11;95703.00;;;0.90
18219;BMP180;9234;49.344;11.120;2023-01-16T05:59:40;95704.00;;;0.90
18219;BMP180;9234;49.344;11.120;2023-01-16T06:02:12;95718.00;;;0.90
18219;BMP180;9234;49.344;11.120;2023-01-16T06:04:42;95708.00;;;0.90
18219;BMP180;9234;49.344;11.120;2023-01-16T06:07:10;95694.00;;;0.90
18219;BMP180;9234;49.344;11.120;2023-01-16T06:09:39;95698.00;;;0.90
18219;BMP180;9234;49.344;11.120;2023-01-16T06:12:12;95694.00;;;0.90
18219;BMP180;9234;49.344;11.120;2023-01-16T06:14:41;95693.00;;;0.80
18219;BMP180;9234;49.344;11.120;2023-01-16T06:17:11;95686.00;;;0.80
18219;BMP180;9234;49.344;11.120;2023-01-16T06:19:43;95686.00;;;0.80
18219;BMP180;9234;49.344;11.120;2023-01-16T06:22:12;95686.00;;;0.80
18219;BMP180;9234;49.344;11.120;2023-01-16T06:24:40;95679.00;;;0.80
18219;BMP180;9234;49.344;11.120;2023-01-16T06:27:08;95676.00;;;0.80
18219;BMP180;9234;49.344;11.120;2023-01-16T06:29:37;95675.00;;;0.70
18219;BMP180;9234;49.344;11.120;2023-01-16T06:32:06;95673.00;;;0.70
18219;BMP180;9234;49.344;11.120;2023-01-16T06:34:34;95653.00;;;0.70
18219;BMP180;9234;49.344;11.120;2023-01-16T06:37:04;95643.00;;;0.60
18219;BMP180;9234;49.344;11.120;2023-01-16T06:39:32;95647.00;;;0.60
18219;BMP180;9234;49.344;11.120;2023-01-16T06:42:00;95633.00;;;0.60
18219;BMP180;9234;49.344;11.120;2023-01-16T06:44:30;95639.00;;;0.50
18219;BMP180;9234;49.344;11.120;2023-01-16T06:46:58;95631.00;;;0.50
18219;BMP180;9234;49.344;11.120;2023-01-16T06:49:27;95622.00;;;0.50
18219;BMP180;9234;49.344;11.120;2023-01-16T06:51:55;95631.00;;;0.50
18219;BMP180;9234;49.344;11.120;2023-01-16T06:54:25;95612.00;;;0.50
18219;BMP180;9234;49.344;11.120;2023-01-16T06:56:53;95633.00;;;0.50
18219;BMP180;9234;49.344;11.120;2023-01-16T06:59:21;95615.00;;;0.40
18219;BMP180;9234;49.344;11.120;2023-01-16T07:01:49;95630.00;;;0.40
18219;BMP180;9234;49.344;11.120;2023-01-16T07:04:18;95615.00;;;0.40
18219;BMP180;9234;49.344;11.120;2023-01-16T07:06:46;95598.00;;;0.40
18219;BMP180;9234;49.344;11.120;2023-01-16T07:09:16;95605.00;;;0.40
18219;BMP180;9234;49.344;11.120;2023-01-16T07:11:46;95594.00;;;0.40
18219;BMP180;9234;49.344;11.120;2023-01-16T07:14:14;95584.00;;;0.40
18219;BMP180;9234;49.344;11.120;2023-01-16T07:17:00;95574.00;;;0.40
18219;BMP180;9234;49.344;11.120;2023-01-16T07:19:46;95573.00;;;0.40
18219;BMP180;9234;49.344;11.120;2023-01-16T07:22:37;95573.00;;;0.50
18219;BMP180;9234;49.344;11.120;2023-01-16T07:25:15;95557.00;;;0.50
18219;BMP180;9234;49.344;11.120;2023-01-16T07:27:47;95547.00;;;0.50
18219;BMP180;9234;49.344;11.120;2023-01-16T07:30:16;95543.00;;;0.60
18219;BMP180;9234;49.344;11.120;2023-01-16T07:32:45;95538.00;;;0.60
18219;BMP180;9234;49.344;11.120;2023-01-16T07:35:14;95533.00;;;0.60
18219;BMP180;9234;49.344;11.120;2023-01-16T07:37:42;95526.00;;;0.60
18219;BMP180;9234;49.344;11.120;2023-01-16T07:40:13;95528.00;;;0.70
18219;BMP180;9234;49.344;11.120;2023-01-16T07:42:41;95513.00;;;0.70
18219;BMP180;9234;49.344;11.120;2023-01-16T07:45:11;95511.00;;;0.80
18219;BMP180;9234;49.344;11.120;2023-01-16T07:47:39;95510.00;;;0.80
18219;BMP180;9234;49.344;11.120;2023-01-16T07:50:09;95501.00;;;0.90
18219;BMP180;9234;49.344;11.120;2023-01-16T07:52:37;95493.00;;;0.90
18219;BMP180;9234;49.344;11.120;2023-01-16T07:55:06;95467.00;;;1.00
18219;BMP180;9234;49.344;11.120;2023-01-16T07:57:36;95479.00;;;1.00
18219;BMP180;9234;49.344;11.120;2023-01-16T08:00:07;95488.00;;;1.10
18219;BMP180;9234;49.344;11.120;2023-01-16T08:02:41;95481.00;;;1.20
18219;BMP180;9234;49.344;11.120;2023-01-16T08:05:10;95461.00;;;1.30
18219;BMP180;9234;49.344;11.120;2023-01-16T08:07:39;95460.00;;;1.40
18219;BMP180;9234;49.344;11.120;2023-01-16T08:10:09;95460.00;;;1.40
18219;BMP180;9234;49.344;11.120;2023-01-16T08:12:38;95454.00;;;1.50
18219;BMP180;9234;49.344;11.120;2023-01-16T08:15:07;95450.00;;;1.60
18219;BMP180;9234;49.344;11.120;2023-01-16T08:17:39;95441.00;;;1.70
18219;BMP180;9234;49.344;11.120;2023-01-16T08:20:09;95432.00;;;1.80
18219;BMP180;9234;49.344;11.120;2023-01-16T08:22:42;95422.00;;;1.80
18219;BMP180;9234;49.344;11.120;2023-01-16T08:25:12;95421.00;;;2.00
18219;BMP180;9234;49.344;11.120;2023-01-16T08:27:41;95421.00;;;2.00
18219;BMP180;9234;49.344;11.120;2023-01-16T08:30:11;95414.00;;;2.10
18219;BMP180;9234;49.344;11.120;2023-01-16T08:32:41;95381.00;;;2.20
18219;BMP180;9234;49.344;11.120;2023-01-16T08:35:10;95388.00;;;2.40
18219;BMP180;9234;49.344;11.120;2023-01-16T08:37:38;95373.00;;;2.40
18219;BMP180;9234;49.344;11.120;2023-01-16T08:40:08;95365.00;;;2.50
18219;BMP180;9234;49.344;11.120;2023-01-16T08:42:37;95374.00;;;2.70
18219;BMP180;9234;49.344;11.120;2023-01-16T08:45:23;95374.00;;;2.80
18219;BMP180;9234;49.344;11.120;2023-01-16T08:48:11;95369.00;;;2.90
18219;BMP180;9234;49.344;11.120;2023-01-16T08:50:57;95352.00;;;3.00
18219;BMP180;9234;49.344;11.120;2023-01-16T08:53:43;95339.00;;;3.10
18219;BMP180;9234;49.344;11.120;2023-01-16T08:56:11;95347.00;;;3.20
18219;BMP180;9234;49.344;11.120;2023-01-16T08:58:39;95346.00;;;3.30
18219;BMP180;9234;49.344;11.120;2023-01-16T09:01:08;95322.00;;;3.40
18219;BMP180;9234;49.344;11.120;2023-01-16T09:03:37;95326.00;;;3.50
18219;BMP180;9234;49.344;11.120;2023-01-16T09:06:06;95337.00;;;3.60
18219;BMP180;9234;49.344;11.120;2023-01-16T09:08:34;95326.00;;;3.70
18219;BMP180;9234;49.344;11.120;2023-01-16T09:11:02;95325.00;;;3.80
18219;BMP180;9234;49.344;11.120;2023-01-16T09:13:48;95316.00;;;3.90
18219;BMP180;9234;49.344;11.120;2023-01-16T09:16:18;95312.00;;;4.00
18219;BMP180;9234;49.344;11.120;2023-01-16T09:18:49;95310.00;;;4.00
18219;BMP180;9234;49.344;11.120;2023-01-16T09:21:18;95305.00;;;4.10
18219;BMP180;9234;49.344;11.120;2023-01-16T09:23:46;95297.00;;;4.20
18219;BMP180;9234;49.344;11.120;2023-01-16T09:26:15;95299.00;;;4.30
18219;BMP180;9234;49.344;11.120;2023-01-16T09:28:43;95296.00;;;4.30
18219;BMP180;9234;49.344;11.120;2023-01-16T09:31:11;95298.00;;;4.40
18219;BMP180;9234;49.344;11.120;2023-01-16T09:33:40;95291.00;;;4.50
18219;BMP180;9234;49.344;11.120;2023-01-16T09:36:10;95297.00;;;4.50
18219;BMP180;9234;49.344;11.120;2023-01-16T09:38:38;95287.00;;;4.60
18219;BMP180;9234;49.344;11.120;2023-01-16T09:41:14;95283.00;;;4.70
18219;BMP180;9234;49.344;11.120;2023-01-16T09:44:08;95273.00;;;4.80
18219;BMP180;9234;49.344;11.120;2023-01-16T09:46:41;95264.00;;;4.90
18219;BMP180;9234;49.344;11.120;2023-01-16T09:49:22;95253.00;;;4.90
18219;BMP180;9234;49.344;11.120;2023-01-16T09:51:59;95251.00;;;5.00
18219;BMP180;9234;49.344;11.120;2023-01-16T09:54:53;95251.00;;;5.10
18219;BMP180;9234;49.344;11.120;2023-01-16T09:57:41;95254.00;;;5.20
18219;BMP180;9234;49.344;11.120;2023-01-16T10:00:32;95224.00;;;5.20
18219;BMP180;9234;49.344;11.120;2023-01-16T10:03:01;95230.00;;;5.30
18219;BMP180;9234;49.344;11.120;2023-01-16T10:05:38;95218.00;;;5.40
18219;BMP180;9234;49.344;11.120;2023-01-16T10:08:21;95201.00;;;5.50
18219;BMP180;9234;49.344;11.120;2023-01-16T10:10:59;95196.00;;;5.50
18219;BMP180;9234;49.344;11.120;2023-01-16T10:13:59;95204.00;;;5.60
18219;BMP180;9234;49.344;11.120;2023-01-16T10:16:46;95185.00;;;5.70
18219;BMP180;9234;49.344;11.120;2023-01-16T10:19:37;95178.00;;;5.80
18219;BMP180;9234;49.344;11.120;2023-01-16T10:22:31;95169.00;;;5.90
18219;BMP180;9234;49.344;11.120;2023-01-16T10:25:20;95164.00;;;6.00
18219;BMP180;9234;49.344;11.120;2023-01-16T10:28:07;95162.00;;;6.10
18219;BMP180;9234;49.344;11.120;2023-01-16T10:30:47;95148.00;;;6.20
18219;BMP180;9234;49.344;11.120;2023-01-16T10:33:29;95141.00;;;6.30
18219;BMP180;9234;49.344;11.120;2023-01-16T10:36:12;95141.00;;;6.50
18219;BMP180;9234;49.344;11.120;2023-01-16T10:38:45;95135.00;;;6.60
18219;BMP180;9234;49.344;11.120;2023-01-16T10:41:23;95130.00;;;6.70
18219;BMP180;9234;49.344;11.120;2023-01-16T10:44:27;95122.00;;;6.80
18219;BMP180;9234;49.344;11.120;2023-01-16T10:47:16;95109.00;;;7.00
18219;BMP180;9234;49.344;11.120;2023-01-16T10:50:03;95103.00;;;7.20
18219;BMP180;9234;49.344;11.120;2023-01-16T10:52:32;95098.00;;;7.30
18219;BMP180;9234;49.344;11.120;2023-01-16T10:55:02;95099.00;;;7.50
18219;BMP180;9234;49.344;11.120;2023-01-16T10:57:33;95101.00;;;7.60
18219;BMP180;9234;49.344;11.120;2023-01-16T11:00:06;95095.00;;;7.70
18219;BMP180;9234;49.344;11.120;2023-01-16T11:02:40;95094.00;;;7.70
18219;BMP180;9234;49.344;11.120;2023-01-16T11:05:25;95086.00;;;7.70
18219;BMP180;9234;49.344;11.120;2023-01-16T11:08:01;95083.00;;;7.70
18219;BMP180;9234;49.344;11.120;2023-01-16T11:10:31;95084.00;;;7.70
18219;BMP180;9234;49.344;11.120;2023-01-16T11:13:01;95083.00;;;7.70
18219;BMP180;9234;49.344;11.120;2023-01-16T11:16:05;95051.00;;;7.70
18219;BMP180;9234;49.344;11.120;2023-01-16T11:18:54;95032.00;;;7.80
18219;BMP180;9234;49.344;11.120;2023-01-16T11:21:27;95028.00;;;8.00
18219;BMP180;9234;49.344;11.120;2023-01-16T11:24:03;95013.00;;;8.20
18219;BMP180;9234;49.344;11.120;2023-01-16T11:26:32;95008.00;;;8.40
18219;BMP180;9234;49.344;11.120;2023-01-16T11:29:01;94996.00;;;8.50
18219;BMP180;9234;49.344;11.120;2023-01-16T11:31:31;94998.00;;;8.60
18219;BMP180;9234;49.344;11.120;2023-01-16T11:34:03;94991.00;;;8.80
18219;BMP180;9234;49.344;11.120;2023-01-16T11:36:34;94991.00;;;8.80
18219;BMP180;9234;49.344;11.120;2023-01-16T11:39:04;94985.00;;;8.80
18219;BMP180;9234;49.344;11.120;2023-01-16T11:41:37;94971.00;;;8.90
18219;BMP180;9234;49.344;11.120;2023-01-16T11:44:18;94954.00;;;8.90
18219;BMP180;9234;49.344;11.120;2023-01-16T11:47:04;94951.00;;;8.90
18219;BMP180;9234;49.344;11.120;2023-01-16T11:49:36;94948.00;;;8.80
18219;BMP180;9234;49.344;11.120;2023-01-16T11:52:12;94919.00;;;8.60
18219;BMP180;9234;49.344;11.120;2023-01-16T11:54:40;94920.00;;;8.60
18219;BMP180;9234;49.344;11.120;2023-01-16T11:57:32;94902.00;;;8.50
18219;BMP180;9234;49.344;11.120;2023-01-16T12:00:33;94895.00;;;8.40
18219;BMP180;9234;49.344;11.120;2023-01-16T12:06:52;94871.00;;;8.30
18219;BMP180;9234;49.344;11.120;2023-01-16T12:09:51;94872.00;;;8.30
18219;BMP180;9234;49.344;11.120;2023-01-16T12:12:31;94877.00;;;8.30
18219;BMP180;9234;49.344;11.120;2023-01-16T12:15:29;94859.00;;;8.30
18219;BMP180;9234;49.344;11.120;2023-01-16T12:18:17;94853.00;;;8.30
18219;BMP180;9234;49.344;11.120;2023-01-16T12:20:59;94866.00;;;8.30
18219;BMP180;9234;49.344;11.120;2023-01-16T12:24:01;94859.00;;;8.40
18219;BMP180;9234;49.344;11.120;2023-01-16T12:26:54;94865.00;;;8.50
18219;BMP180;9234;49.344;11.120;2023-01-16T12:29:50;94860.00;;;8.70
18219;BMP180;9234;49.344;11.120;2023-01-16T12:32:44;94857.00;;;8.90
18219;BMP180;9234;49.344;11.120;2023-01-16T12:35:38;94868.00;;;9.00
18219;BMP180;9234;49.344;11.120;2023-01-16T12:38:16;94859.00;;;8.90
18219;BMP180;9234;49.344;11.120;2023-01-16T12:41:15;94867.00;;;8.80
18219;BMP180;9234;49.344;11.120;2023-01-16T12:47:31;94868.00;;;8.60
18219;BMP180;9234;49.344;11.120;2023-01-16T12:50:15;94859.00;;;8.50
18219;BMP180;9234;49.344;11.120;2023-01-16T12:53:12;94863.00;;;8.50
18219;BMP180;9234;49.344;11.120;2023-01-16T12:55:55;94862.00;;;8.50
18219;BMP180;9234;49.344;11.120;2023-01-16T12:58:38;94848.00;;;8.50
18219;BMP180;9234;49.344;11.120;2023-01-16T13:01:13;94867.00;;;8.50
18219;BMP180;9234;49.344;11.120;2023-01-16T13:03:53;94859.00;;;8.50
18219;BMP180;9234;49.344;11.120;2023-01-16T13:06:35;94859.00;;;8.40
18219;BMP180;9234;49.344;11.120;2023-01-16T13:09:14;94864.00;;;8.40
18219;BMP180;9234;49.344;11.120;2023-01-16T13:11:57;94859.00;;;8.30
18219;BMP180;9234;49.344;11.120;2023-01-16T13:14:50;94862.00;;;8.20
18219;BMP180;9234;49.344;11.120;2023-01-16T13:17:25;94854.00;;;8.10
18219;BMP180;9234;49.344;11.120;2023-01-16T13:20:04;94858.00;;;8.10
18219;BMP180;9234;49.344;11.120;2023-01-16T13:22:43;94858.00;;;8.00
18219;BMP180;9234;49.344;11.120;2023-01-16T13:25:20;94876.00;;;8.00
18219;BMP180;9234;49.344;11.120;2023-01-16T13:27:55;94852.00;;;8.00
18219;BMP180;9234;49.344;11.120;2023-01-16T13:30:26;94826.00;;;7.90
18219;BMP180;9234;49.344;11.120;2023-01-16T13:32:59;94830.00;;;7.90
18219;BMP180;9234;49.344;11.120;2023-01-16T13:35:38;94832.00;;;7.80
18219;BMP180;9234;49.344;11.120;2023-01-16T13:38:36;94847.00;;;7.70
18219;BMP180;9234;49.344;11.120;2023-01-16T13:41:15;94853.00;;;7.70
18219;BMP180;9234;49.344;11.120;2023-01-16T13:43:53;94840.00;;;7.70
18219;BMP180;9234;49.344;11.120;2023-01-16T13:46:41;94851.00;;;7.60
18219;BMP180;9234;49.344;11.120;2023-01-16T13:49:20;94844.00;;;7.60
18219;BMP180;9234;49.344;11.120;2023-01-16T13:51:52;94843.00;;;7.60
18219;BMP180;9234;49.344;11.120;2023-01-16T13:54:27;94844.00;;;7.50
18219;BMP180;9234;49.344;11.120;2023-01-16T13:57:01;94833.00;;;7.50
18219;BMP180;9234;49.344;11.120;2023-01-16T13:59:43;94841.00;;;7.50
18219;BMP180;9234;49.344;11.120;2023-01-16T14:02:26;94845.00;;;7.50
18219;BMP180;9234;49.344;11.120;2023-01-16T14:08:48;94817.00;;;7.40
18219;BMP180;9234;49.344;11.120;2023-01-16T14:11:39;94807.00;;;7.30
18219;BMP180;9234;49.344;11.120;2023-01-16T14:14:47;94762.00;;;7.30
18219;BMP180;9234;49.344;11.120;2023-01-16T14:18:13;94783.00;;;7.30
18219;BMP180;9234;49.344;11.120;2023-01-16T14:20:49;94772.00;;;7.30
18219;BMP180;9234;49.344;11.120;2023-01-16T14:23:23;94764.00;;;7.20
18219;BMP180;9234;49.344;11.120;2023-01-16T14:26:19;94783.00;;;7.20
18219;BMP180;9234;49.344;11.120;2023-01-16T14:28:49;94763.00;;;7.20
18219;BMP180;9234;49.344;11.120;2023-01-16T14:31:24;94755.00;;;7.20
18219;BMP180;9234;49.344;11.120;2023-01-16T14:33:57;94745.00;;;7.10
18219;BMP180;9234;49.344;11.120;2023-01-16T14:36:27;94754.00;;;7.10
18219;BMP180;9234;49.344;11.120;2023-01-16T14:38:56;94750.00;;;7.10
18219;BMP180;9234;49.344;11.120;2023-01-16T14:41:31;94744.00;;;7.10
18219;BMP180;9234;49.344;11.120;2023-01-16T14:44:19;94745.00;;;7.10
18219;BMP180;9234;49.344;11.120;2023-01-16T14:47:10;94740.00;;;7.00
18219;BMP180;9234;49.344;11.120;2023-01-16T14:50:12;94741.00;;;7.00
18219;BMP180;9234;49.344;11.120;2023-01-16T14:53:18;94726.00;;;6.90
18219;BMP180;9234;49.344;11.120;2023-01-16T14:56:24;94736.00;;;6.90
18219;BMP180;9234;49.344;11.120;2023-01-16T14:59:03;94725.00;;;6.80
18219;BMP180;9234;49.344;11.120;2023-01-16T15:01:38;94706.00;;;6.80
18219;BMP180;9234;49.344;11.120;2023-01-16T15:04:37;94743.00;;;6.80
18219;BMP180;9234;49.344;11.120;2023-01-16T15:07:06;94712.00;;;6.70
18219;BMP180;9234;49.344;11.120;2023-01-16T15:09:38;94731.00;;;6.70
18219;BMP180;9234;49.344;11.120;2023-01-16T15:12:12;94748.00;;;6.70
18219;BMP180;9234;49.344;11.120;2023-01-16T15:14:55;94729.00;;;6.70
18219;BMP180;9234;49.344;11.120;2023-01-16T15:17:30;94728.00;;;6.70
18219;BMP180;9234;49.344;11.120;2023-01-16T15:20:24;94704.00;;;6.60
18219;BMP180;9234;49.344;11.120;2023-01-16T15:23:22;94690.00;;;6.60